createdAt,value
2023-05-19T00:01:00.382Z,17.61
2023-05-19T00:03:27.122Z,17.60
2023-05-19T00:05:54.470Z,17.59
2023-05-19T00:08:23.935Z,17.57
2023-05-19T00:10:50.939Z,17.56
2023-05-19T00:13:17.814Z,17.51
2023-05-19T00:15:44.764Z,17.51
2023-05-19T00:18:14.174Z,17.49
2023-05-19T00:20:41.390Z,17.50
2023-05-19T00:23:08.256Z,17.50
2023-05-19T00:25:34.949Z,17.45
2023-05-19T00:28:02.485Z,17.45
2023-05-19T00:30:32.425Z,17.43
2023-05-19T00:32:59.199Z,17.41
2023-05-19T00:35:26.058Z,17.37
2023-05-19T00:37:52.765Z,17.38
2023-05-19T00:40:19.486Z,17.32
2023-05-19T00:42:46.131Z,17.31
2023-05-19T00:45:12.788Z,17.34
2023-05-19T00:47:39.664Z,17.31
2023-05-19T00:50:06.615Z,17.31
2023-05-19T00:52:33.273Z,17.29
2023-05-19T00:54:59.959Z,17.28
2023-05-19T00:57:27.226Z,17.26
2023-05-19T00:59:54.184Z,17.26
2023-05-19T01:03:40.772Z,17.26
2023-05-19T01:06:07.959Z,17.18
2023-05-19T01:08:38.601Z,17.21
2023-05-19T01:11:06.600Z,17.18
2023-05-19T01:13:34.518Z,17.18
2023-05-19T01:16:07.876Z,17.16
2023-05-19T01:19:01.783Z,17.16
2023-05-19T01:21:36.621Z,17.13
2023-05-19T01:24:34.246Z,17.13
2023-05-19T01:27:10.178Z,17.12
2023-05-19T01:29:45.963Z,17.12
2023-05-19T01:32:18.805Z,17.10
2023-05-19T01:34:49.607Z,17.07
2023-05-19T01:37:17.565Z,17.08
2023-05-19T01:39:45.675Z,17.08
2023-05-19T01:42:14.362Z,17.06
2023-05-19T01:44:41.870Z,17.05
2023-05-19T01:47:13.264Z,17.02
2023-05-19T01:49:39.876Z,17.00
2023-05-19T01:52:06.692Z,17.00
2023-05-19T01:54:33.519Z,16.98
2023-05-19T01:57:27.535Z,16.97
2023-05-19T02:00:05.701Z,16.95
2023-05-19T02:02:32.326Z,16.92
2023-05-19T02:05:09.516Z,16.91
2023-05-19T02:07:51.644Z,16.91
2023-05-19T02:10:31.022Z,16.87
2023-05-19T02:13:04.343Z,16.84
2023-05-19T02:15:38.736Z,16.85
2023-05-19T02:18:09.447Z,16.80
2023-05-19T02:20:36.090Z,16.80
2023-05-19T02:23:02.757Z,16.77
2023-05-19T02:25:29.379Z,16.78
2023-05-19T02:27:55.999Z,16.76
2023-05-19T02:30:22.588Z,16.78
2023-05-19T02:32:49.288Z,16.76
2023-05-19T02:35:15.957Z,16.76
2023-05-19T02:37:42.614Z,16.72
2023-05-19T02:40:09.591Z,16.72
2023-05-19T02:42:36.316Z,16.72
2023-05-19T02:45:03.175Z,16.67
2023-05-19T02:47:29.863Z,16.69
2023-05-19T02:49:56.535Z,16.68
2023-05-19T02:52:23.119Z,16.69
2023-05-19T02:54:49.736Z,16.69
2023-05-19T02:57:16.300Z,16.71
2023-05-19T02:59:43.244Z,16.74
2023-05-19T03:02:09.905Z,16.77
2023-05-19T03:04:41.747Z,16.74
2023-05-19T03:07:13.445Z,16.77
2023-05-19T03:09:40.322Z,16.75
2023-05-19T03:12:07.754Z,16.74
2023-05-19T03:14:37.361Z,16.75
2023-05-19T03:17:04.237Z,16.76
2023-05-19T03:19:32.561Z,16.78
2023-05-19T03:21:59.336Z,16.77
2023-05-19T03:24:25.949Z,16.78
2023-05-19T03:26:52.653Z,16.76
2023-05-19T03:29:19.281Z,16.76
2023-05-19T03:31:46.027Z,16.82
2023-05-19T03:34:12.640Z,16.86
2023-05-19T03:36:40.012Z,16.86
2023-05-19T03:39:06.965Z,16.89
2023-05-19T03:41:33.823Z,16.92
2023-05-19T03:44:00.604Z,16.92
2023-05-19T03:46:27.300Z,16.87
2023-05-19T03:48:53.937Z,16.75
2023-05-19T03:51:20.627Z,16.66
2023-05-19T03:53:48.636Z,16.68
2023-05-19T03:56:18.125Z,16.65
2023-05-19T03:58:45.090Z,16.63
2023-05-19T04:01:11.952Z,16.49
2023-05-19T04:03:38.652Z,16.64
2023-05-19T04:06:05.459Z,16.71
2023-05-19T04:08:32.185Z,16.75
2023-05-19T04:10:58.810Z,16.87
2023-05-19T04:13:25.706Z,16.90
2023-05-19T04:15:52.574Z,16.95
2023-05-19T04:18:19.226Z,16.95
2023-05-19T04:20:45.862Z,16.93
2023-05-19T04:23:12.593Z,16.96
2023-05-19T04:25:40.873Z,16.94
2023-05-19T04:28:07.702Z,16.93
2023-05-19T04:30:34.897Z,16.97
2023-05-19T04:33:03.256Z,16.97
2023-05-19T04:35:30.003Z,16.96
2023-05-19T04:37:56.854Z,16.95
2023-05-19T04:40:23.912Z,16.99
2023-05-19T04:42:52.209Z,16.98
2023-05-19T04:45:18.861Z,16.95
2023-05-19T04:47:48.189Z,16.95
2023-05-19T04:50:16.449Z,16.92
2023-05-19T04:52:45.626Z,16.95
2023-05-19T04:55:13.366Z,16.96
2023-05-19T04:57:40.275Z,16.98
2023-05-19T05:00:12.358Z,16.96
2023-05-19T05:02:39.031Z,17.01
2023-05-19T05:05:06.195Z,16.99
2023-05-19T05:07:32.866Z,17.04
2023-05-19T05:09:59.748Z,17.00
2023-05-19T05:12:26.795Z,17.03
2023-05-19T05:14:53.688Z,17.07
2023-05-19T05:17:20.632Z,17.04
2023-05-19T05:19:48.546Z,17.08
2023-05-19T05:22:15.845Z,17.12
2023-05-19T05:24:42.604Z,17.05
2023-05-19T05:27:10.275Z,17.08
2023-05-19T05:29:37.125Z,17.07
2023-05-19T05:32:03.896Z,17.13
2023-05-19T05:34:30.968Z,17.19
2023-05-19T05:36:57.620Z,17.22
2023-05-19T05:39:24.203Z,17.24
2023-05-19T05:41:50.852Z,17.31
2023-05-19T05:44:17.513Z,17.34
2023-05-19T05:46:44.505Z,17.35
2023-05-19T05:49:12.562Z,17.43
2023-05-19T05:51:39.533Z,17.49
2023-05-19T05:54:07.273Z,17.54
2023-05-19T05:56:34.188Z,17.46
2023-05-19T05:59:00.768Z,17.49
2023-05-19T06:01:28.208Z,17.54
2023-05-19T06:03:54.817Z,17.58
2023-05-19T06:06:21.485Z,17.64
2023-05-19T06:08:48.113Z,17.73
2023-05-19T06:11:14.864Z,17.68
2023-05-19T06:13:41.558Z,17.74
2023-05-19T06:16:08.946Z,17.85
2023-05-19T06:18:35.823Z,17.86
2023-05-19T06:21:03.677Z,18.16
2023-05-19T06:23:30.958Z,18.35
2023-05-19T06:25:57.833Z,18.40
2023-05-19T06:28:24.410Z,18.48
2023-05-19T06:30:51.052Z,18.58
2023-05-19T06:33:17.667Z,18.30
2023-05-19T06:35:44.306Z,18.27
2023-05-19T06:38:11.020Z,18.18
2023-05-19T06:40:37.662Z,18.24
2023-05-19T06:43:05.036Z,18.12
2023-05-19T06:45:31.993Z,18.05
2023-05-19T06:47:58.711Z,17.98
2023-05-19T06:50:25.809Z,18.00
2023-05-19T06:52:52.992Z,17.88
2023-05-19T06:55:19.873Z,17.91
2023-05-19T06:57:46.587Z,17.80
2023-05-19T07:00:16.775Z,17.87
2023-05-19T07:02:45.391Z,17.82
2023-05-19T07:05:12.015Z,17.82
2023-05-19T07:07:38.681Z,17.79
2023-05-19T07:10:05.836Z,17.65
2023-05-19T07:12:32.462Z,17.72
2023-05-19T07:14:59.193Z,17.82
2023-05-19T07:17:26.038Z,17.85
2023-05-19T07:19:52.861Z,17.74
2023-05-19T07:22:19.576Z,17.82
2023-05-19T07:24:46.192Z,17.95
2023-05-19T07:27:12.806Z,17.94
2023-05-19T07:29:39.632Z,17.86
2023-05-19T07:32:06.654Z,17.88
2023-05-19T07:34:33.267Z,17.87
2023-05-19T07:37:00.289Z,17.90
2023-05-19T07:39:29.642Z,17.74
2023-05-19T07:41:56.601Z,17.77
2023-05-19T07:44:23.406Z,17.99
2023-05-19T07:46:50.075Z,18.14
2023-05-19T07:49:16.752Z,18.08
2023-05-19T07:51:43.523Z,18.28
2023-05-19T07:54:10.121Z,18.20
2023-05-19T07:56:36.800Z,18.42
2023-05-19T07:59:04.692Z,18.35
2023-05-19T08:01:32.454Z,18.43
2023-05-19T08:03:59.209Z,18.27
2023-05-19T08:06:25.941Z,18.19
2023-05-19T08:08:54.304Z,18.27
2023-05-19T08:11:21.567Z,18.11
2023-05-19T08:13:49.127Z,18.19
2023-05-19T08:16:18.876Z,18.02
2023-05-19T08:18:45.672Z,18.18
2023-05-19T08:21:12.323Z,18.15
2023-05-19T08:23:39.198Z,18.09
2023-05-19T08:26:05.858Z,18.13
2023-05-19T08:28:32.739Z,17.91
2023-05-19T08:30:59.419Z,17.92
2023-05-19T08:33:26.053Z,18.09
2023-05-19T08:35:52.910Z,18.03
2023-05-19T08:38:19.547Z,18.12
2023-05-19T08:40:48.387Z,18.22
2023-05-19T08:43:15.388Z,18.30
2023-05-19T08:45:48.261Z,18.31
2023-05-19T08:48:17.422Z,18.31
2023-05-19T08:50:51.849Z,18.35
2023-05-19T08:53:33.817Z,18.49
2023-05-19T08:56:16.738Z,18.30
2023-05-19T08:58:44.733Z,18.37
2023-05-19T09:01:14.557Z,18.17
2023-05-19T09:03:42.652Z,18.31
2023-05-19T09:06:13.862Z,18.31
2023-05-19T09:08:42.349Z,18.40
2023-05-19T09:11:09.474Z,18.45
2023-05-19T09:13:36.483Z,18.51
2023-05-19T09:16:03.656Z,18.51
2023-05-19T09:18:30.674Z,18.56
2023-05-19T09:21:02.717Z,18.65
2023-05-19T09:23:33.594Z,18.62
2023-05-19T09:26:08.190Z,18.52
2023-05-19T09:28:36.481Z,18.40
2023-05-19T09:31:08.535Z,18.53
2023-05-19T09:33:40.699Z,18.42
2023-05-19T09:36:10.872Z,18.52
2023-05-19T09:38:38.854Z,18.56
2023-05-19T09:41:07.167Z,18.48
2023-05-19T09:43:35.043Z,18.77
2023-05-19T09:46:06.807Z,18.69
2023-05-19T09:48:37.636Z,18.54
2023-05-19T09:51:06.371Z,18.80
2023-05-19T09:53:34.425Z,19.08
2023-05-19T09:56:02.086Z,18.92
2023-05-19T09:58:34.627Z,19.03
2023-05-19T10:01:01.656Z,19.18
2023-05-19T10:03:28.722Z,19.20
2023-05-19T10:05:56.136Z,19.49
2023-05-19T10:08:26.580Z,19.51
2023-05-19T10:10:53.966Z,19.38
2023-05-19T10:13:21.983Z,19.31
2023-05-19T10:15:58.010Z,19.43
2023-05-19T10:18:30.718Z,19.68
2023-05-19T10:20:58.215Z,20.13
2023-05-19T10:23:25.575Z,19.87
2023-05-19T10:25:57.713Z,20.27
2023-05-19T10:28:29.863Z,19.85
2023-05-19T10:31:00.435Z,19.99
2023-05-19T10:33:53.071Z,20.03
2023-05-19T10:36:32.137Z,20.07
2023-05-19T10:39:35.708Z,19.42
2023-05-19T10:42:11.573Z,19.77
2023-05-19T10:44:44.834Z,19.61
2023-05-19T10:47:12.449Z,19.33
2023-05-19T10:49:39.905Z,19.33
2023-05-19T10:52:26.013Z,19.14
2023-05-19T10:54:54.819Z,18.98
2023-05-19T10:57:33.207Z,19.04
2023-05-19T11:00:11.324Z,19.06
2023-05-19T11:02:43.250Z,18.93
2023-05-19T11:05:18.559Z,19.17
2023-05-19T11:07:56.374Z,19.37
2023-05-19T11:10:24.435Z,19.50
2023-05-19T11:12:52.388Z,19.46
2023-05-19T11:15:24.175Z,19.49
2023-05-19T11:17:51.182Z,19.98
2023-05-19T11:20:25.740Z,20.29
2023-05-19T11:23:18.440Z,20.29
2023-05-19T11:25:49.968Z,20.28
2023-05-19T11:28:19.678Z,20.07
2023-05-19T11:30:51.949Z,19.82
2023-05-19T11:33:20.316Z,19.80
2023-05-19T11:35:49.344Z,19.58
2023-05-19T11:38:18.320Z,19.42
2023-05-19T11:40:45.294Z,19.59
2023-05-19T11:43:12.067Z,19.56
2023-05-19T11:45:39.464Z,19.71
2023-05-19T11:48:06.914Z,19.30
2023-05-19T11:50:33.769Z,19.45
2023-05-19T11:53:01.729Z,19.37
2023-05-19T11:55:29.244Z,19.57
2023-05-19T11:58:05.777Z,19.53
2023-05-19T12:00:39.181Z,19.46
2023-05-19T12:03:06.295Z,19.54
2023-05-19T12:05:39.854Z,19.15
2023-05-19T12:08:07.831Z,18.96
2023-05-19T12:10:35.782Z,19.32
2023-05-19T12:13:03.274Z,19.28
2023-05-19T12:15:31.693Z,19.34
2023-05-19T12:18:00.343Z,19.44
2023-05-19T12:20:27.976Z,19.42
2023-05-19T12:22:59.220Z,19.39
2023-05-19T12:25:26.134Z,19.38
2023-05-19T12:27:58.240Z,19.55
2023-05-19T12:30:30.644Z,19.36
2023-05-19T12:32:58.218Z,19.50
2023-05-19T12:35:29.696Z,19.52
2023-05-19T12:37:56.434Z,19.51
2023-05-19T12:40:23.312Z,19.45
2023-05-19T12:42:53.454Z,19.54
2023-05-19T12:45:23.349Z,19.59
2023-05-19T12:47:51.360Z,19.45
2023-05-19T12:50:18.334Z,19.17
2023-05-19T12:52:47.749Z,19.22
2023-05-19T12:55:16.510Z,19.22
2023-05-19T12:57:49.884Z,19.25
2023-05-19T13:00:22.711Z,19.48
2023-05-19T13:03:06.649Z,19.55
2023-05-19T13:05:39.666Z,19.31
2023-05-19T13:08:08.745Z,19.27
2023-05-19T13:10:38.420Z,19.24
2023-05-19T13:13:05.837Z,19.17
2023-05-19T13:15:35.758Z,19.12
2023-05-19T13:18:07.252Z,19.13
2023-05-19T13:20:34.333Z,18.86
2023-05-19T13:23:01.546Z,18.78
2023-05-19T13:25:28.331Z,18.69
2023-05-19T13:27:55.232Z,18.73
2023-05-19T13:30:22.736Z,18.68
2023-05-19T13:32:49.794Z,18.78
2023-05-19T13:35:16.545Z,18.65
2023-05-19T13:37:43.427Z,18.68
2023-05-19T13:40:10.896Z,18.43
2023-05-19T13:42:38.092Z,18.43
2023-05-19T13:45:05.221Z,18.59
2023-05-19T13:47:31.878Z,18.56
2023-05-19T13:49:58.657Z,18.80
2023-05-19T13:52:26.410Z,18.72
2023-05-19T13:54:56.916Z,18.68
2023-05-19T13:57:24.510Z,18.47
2023-05-19T14:00:01.843Z,17.64
2023-05-19T14:02:30.429Z,17.16
2023-05-19T14:04:57.625Z,16.81
2023-05-19T14:07:25.748Z,16.71
2023-05-19T14:09:52.863Z,16.56
2023-05-19T14:12:21.583Z,16.76
2023-05-19T14:14:52.055Z,16.76
2023-05-19T14:17:18.737Z,16.85
2023-05-19T14:19:45.478Z,16.96
2023-05-19T14:22:13.547Z,16.95
2023-05-19T14:24:41.497Z,17.07
2023-05-19T14:27:08.235Z,16.96
2023-05-19T14:29:35.417Z,16.83
2023-05-19T14:32:03.152Z,16.98
2023-05-19T14:34:30.032Z,16.93
2023-05-19T14:36:56.733Z,17.02
2023-05-19T14:39:23.337Z,17.01
2023-05-19T14:41:54.251Z,16.98
2023-05-19T14:44:21.121Z,17.19
2023-05-19T14:46:47.838Z,17.44
2023-05-19T14:49:15.236Z,17.43
2023-05-19T14:51:41.835Z,17.33
2023-05-19T14:54:08.462Z,17.20
2023-05-19T14:56:35.145Z,17.11
2023-05-19T14:59:01.756Z,17.36
2023-05-19T15:01:28.463Z,17.22
2023-05-19T15:03:55.201Z,17.13
2023-05-19T15:06:22.285Z,17.26
2023-05-19T15:08:48.928Z,17.41
2023-05-19T15:11:15.685Z,17.31
2023-05-19T15:13:42.325Z,17.44
2023-05-19T15:16:17.684Z,17.46
2023-05-19T15:18:45.145Z,17.29
2023-05-19T15:21:12.100Z,17.49
2023-05-19T15:23:38.752Z,17.31
2023-05-19T15:26:05.740Z,17.24
2023-05-19T15:28:32.456Z,17.15
2023-05-19T15:30:59.142Z,17.20
2023-05-19T15:33:25.844Z,17.05
2023-05-19T15:35:52.601Z,17.02
2023-05-19T15:38:20.090Z,17.03
2023-05-19T15:40:47.018Z,17.04
2023-05-19T15:43:14.020Z,16.95
2023-05-19T15:45:41.326Z,16.78
2023-05-19T15:48:08.509Z,16.65
2023-05-19T15:50:36.160Z,16.59
2023-05-19T15:53:03.383Z,16.66
2023-05-19T15:55:30.077Z,16.73
2023-05-19T15:57:56.757Z,16.81
2023-05-19T16:00:23.724Z,16.88
2023-05-19T16:02:50.710Z,16.79
2023-05-19T16:05:17.827Z,16.84
2023-05-19T16:07:45.029Z,16.84
2023-05-19T16:10:11.911Z,16.76
2023-05-19T16:12:38.567Z,16.86
2023-05-19T16:15:05.833Z,16.96
2023-05-19T16:17:32.497Z,16.96
2023-05-19T16:19:59.185Z,16.92
2023-05-19T16:22:26.113Z,17.01
2023-05-19T16:24:52.789Z,16.93
2023-05-19T16:27:19.439Z,17.00
2023-05-19T16:29:46.390Z,17.02
2023-05-19T16:32:13.272Z,17.03
2023-05-19T16:34:40.276Z,17.08
2023-05-19T16:37:07.036Z,17.11
2023-05-19T16:39:37.271Z,17.00
2023-05-19T16:42:04.766Z,17.03
2023-05-19T16:44:31.565Z,17.00
2023-05-19T16:46:58.364Z,17.07
2023-05-19T16:49:25.026Z,17.13
2023-05-19T16:51:53.073Z,17.12
2023-05-19T16:54:20.011Z,17.16
2023-05-19T16:56:46.704Z,17.15
2023-05-19T16:59:13.846Z,17.09
2023-05-19T17:01:40.750Z,17.10
2023-05-19T17:04:07.507Z,17.09
2023-05-19T17:06:34.321Z,17.07
2023-05-19T17:09:01.080Z,17.03
2023-05-19T17:11:28.097Z,16.99
2023-05-19T17:13:54.725Z,16.92
2023-05-19T17:16:21.721Z,16.96
2023-05-19T17:18:48.493Z,16.94
2023-05-19T17:21:15.369Z,16.92
2023-05-19T17:23:42.031Z,16.90
2023-05-19T17:26:08.954Z,16.89
2023-05-19T17:28:35.771Z,16.92
2023-05-19T17:31:09.721Z,16.91
2023-05-19T17:33:36.590Z,16.86
2023-05-19T17:36:04.406Z,16.83
2023-05-19T17:38:32.401Z,16.75
2023-05-19T17:41:02.463Z,16.58
2023-05-19T17:43:29.356Z,16.58
2023-05-19T17:45:57.227Z,16.67
2023-05-19T17:48:25.883Z,16.65
2023-05-19T17:50:52.574Z,16.62
2023-05-19T17:53:19.559Z,16.67
2023-05-19T17:55:51.499Z,16.60
2023-05-19T17:58:19.355Z,16.57
2023-05-19T18:00:46.399Z,16.48
2023-05-19T18:03:13.304Z,16.45
2023-05-19T18:05:40.564Z,16.46
2023-05-19T18:08:09.394Z,16.45
2023-05-19T18:10:38.115Z,16.49
2023-05-19T18:13:05.425Z,16.51
2023-05-19T18:15:32.255Z,16.43
2023-05-19T18:17:59.250Z,16.39
2023-05-19T18:20:25.889Z,16.39
2023-05-19T18:22:52.631Z,16.46
2023-05-19T18:25:20.124Z,16.37
2023-05-19T18:27:47.970Z,16.44
2023-05-19T18:30:14.666Z,16.41
2023-05-19T18:32:41.535Z,16.37
2023-05-19T18:35:09.285Z,16.29
2023-05-19T18:37:35.975Z,16.26
2023-05-19T18:40:02.553Z,16.25
2023-05-19T18:42:29.269Z,16.20
2023-05-19T18:44:55.951Z,16.21
2023-05-19T18:47:23.222Z,16.18
2023-05-19T18:49:50.199Z,16.12
2023-05-19T18:52:16.931Z,16.03
2023-05-19T18:54:46.422Z,16.11
2023-05-19T18:57:14.309Z,16.12
2023-05-19T18:59:41.250Z,16.05
2023-05-19T19:02:08.367Z,16.03
2023-05-19T19:04:35.064Z,16.06
2023-05-19T19:07:01.796Z,15.95
2023-05-19T19:09:28.386Z,15.99
2023-05-19T19:11:55.641Z,16.08
2023-05-19T19:14:23.359Z,16.08
2023-05-19T19:16:51.099Z,16.17
2023-05-19T19:19:18.553Z,16.18
2023-05-19T19:21:45.869Z,16.15
2023-05-19T19:24:14.249Z,16.23
2023-05-19T19:26:40.880Z,16.25
2023-05-19T19:29:08.025Z,16.31
2023-05-19T19:31:35.785Z,16.37
2023-05-19T19:34:03.532Z,16.44
2023-05-19T19:36:30.399Z,16.49
2023-05-19T19:38:57.429Z,16.51
2023-05-19T19:41:25.768Z,16.50
2023-05-19T19:43:53.108Z,16.55
2023-05-19T19:46:19.887Z,16.59
2023-05-19T19:48:46.464Z,16.64
2023-05-19T19:51:13.170Z,16.69
2023-05-19T19:53:39.861Z,16.73
2023-05-19T19:56:07.212Z,16.78
2023-05-19T19:58:34.145Z,16.77
2023-05-19T20:01:03.887Z,16.77
2023-05-19T20:03:31.789Z,16.79
2023-05-19T20:05:59.015Z,16.80
2023-05-19T20:08:26.728Z,16.78
2023-05-19T20:10:54.590Z,16.77
2023-05-19T20:13:22.150Z,16.77
2023-05-19T20:15:48.958Z,16.69
2023-05-19T20:18:15.844Z,16.63
2023-05-19T20:20:42.743Z,16.58
2023-05-19T20:23:09.455Z,16.50
2023-05-19T20:25:57.893Z,16.43
2023-05-19T20:28:29.642Z,16.37
2023-05-19T20:31:00.381Z,16.34
2023-05-19T20:33:27.903Z,16.27
2023-05-19T20:35:54.528Z,16.24
2023-05-19T20:38:21.302Z,16.16
2023-05-19T20:40:48.029Z,16.06
2023-05-19T20:43:14.815Z,16.06
2023-05-19T20:45:44.965Z,16.05
2023-05-19T20:48:11.945Z,16.00
2023-05-19T20:50:39.774Z,16.01
2023-05-19T20:53:07.534Z,15.98
2023-05-19T20:55:36.298Z,15.98
2023-05-19T20:58:02.959Z,15.97
2023-05-19T21:00:30.486Z,15.97
2023-05-19T21:02:57.476Z,15.95
2023-05-19T21:05:24.512Z,15.97
2023-05-19T21:07:51.203Z,15.98
2023-05-19T21:10:18.064Z,16.00
2023-05-19T21:12:44.865Z,16.03
2023-05-19T21:15:11.817Z,15.93
2023-05-19T21:17:38.596Z,15.93
2023-05-19T21:20:06.058Z,15.93
2023-05-19T21:22:32.665Z,15.95
2023-05-19T21:24:59.500Z,15.96
2023-05-19T21:27:26.106Z,15.95
2023-05-19T21:29:54.125Z,15.98
2023-05-19T21:32:22.052Z,15.99
2023-05-19T21:34:48.763Z,16.00
2023-05-19T21:37:17.281Z,16.04
2023-05-19T21:39:45.306Z,16.13
2023-05-19T21:42:11.904Z,16.36
2023-05-19T21:44:38.710Z,16.47
2023-05-19T21:47:05.492Z,16.64
2023-05-19T21:49:32.223Z,16.73
2023-05-19T21:51:58.923Z,16.76
2023-05-19T21:54:25.663Z,16.84
2023-05-19T21:56:52.404Z,16.91
2023-05-19T21:59:23.030Z,16.90
2023-05-19T22:01:49.777Z,17.01
2023-05-19T22:04:18.492Z,17.05
2023-05-19T22:06:45.646Z,17.12
2023-05-19T22:09:12.823Z,17.12
2023-05-19T22:11:39.753Z,17.12
2023-05-19T22:14:06.863Z,17.08
2023-05-19T22:16:38.577Z,17.05
2023-05-19T22:19:05.372Z,17.06
2023-05-19T22:21:32.162Z,17.04
2023-05-19T22:23:58.792Z,17.08
2023-05-19T22:26:26.032Z,17.12
2023-05-19T22:28:53.343Z,17.18
2023-05-19T22:31:20.039Z,17.18
2023-05-19T22:33:46.626Z,17.16
2023-05-19T22:36:14.295Z,17.18
2023-05-19T22:38:41.347Z,17.16
2023-05-19T22:41:07.947Z,17.15
2023-05-19T22:43:34.810Z,17.14
2023-05-19T22:46:01.437Z,17.12
2023-05-19T22:48:28.087Z,17.10
2023-05-19T22:50:54.749Z,17.12
2023-05-19T22:53:21.376Z,17.14
2023-05-19T22:55:48.037Z,17.13
2023-05-19T22:58:14.802Z,17.12
2023-05-19T23:00:41.455Z,17.13
2023-05-19T23:03:08.168Z,17.14
2023-05-19T23:05:34.994Z,17.18
2023-05-19T23:08:01.847Z,17.25
2023-05-19T23:10:28.478Z,17.19
2023-05-19T23:12:55.297Z,17.18
2023-05-19T23:15:21.985Z,17.22
2023-05-19T23:17:48.665Z,17.27
2023-05-19T23:20:15.457Z,17.25
2023-05-19T23:22:42.296Z,17.22
2023-05-19T23:25:09.100Z,17.24
2023-05-19T23:27:35.994Z,17.25
2023-05-19T23:30:03.655Z,17.29
2023-05-19T23:32:30.367Z,17.24
2023-05-19T23:34:56.965Z,17.29
2023-05-19T23:37:23.579Z,17.32
2023-05-19T23:39:50.480Z,17.31
2023-05-19T23:42:17.197Z,17.36
2023-05-19T23:44:43.806Z,17.33
2023-05-19T23:47:10.383Z,17.36
2023-05-19T23:49:37.011Z,17.35
2023-05-19T23:52:03.664Z,17.35
2023-05-19T23:54:31.102Z,17.34
2023-05-19T23:56:58.498Z,17.34
2023-05-19T23:59:25.323Z,17.35
